createdAt,value
2018-11-28T00:02:14.892Z,55.13
2018-11-28T00:04:43.070Z,56.00
2018-11-28T00:07:11.272Z,55.73
2018-11-28T00:09:39.414Z,56.30
2018-11-28T00:12:07.569Z,56.93
2018-11-28T00:14:35.696Z,53.87
2018-11-28T00:17:03.852Z,56.70
2018-11-28T00:19:31.959Z,60.67
2018-11-28T00:22:00.101Z,56.67
2018-11-28T00:24:28.236Z,54.97
2018-11-28T00:26:56.366Z,57.60
2018-11-28T00:29:24.474Z,57.87
2018-11-28T00:31:52.646Z,55.30
2018-11-28T00:34:20.754Z,58.13
2018-11-28T00:36:48.885Z,57.03
2018-11-28T00:39:17.061Z,55.33
2018-11-28T00:41:45.157Z,62.30
2018-11-28T00:44:13.305Z,55.87
2018-11-28T00:46:41.441Z,53.00
2018-11-28T00:49:09.554Z,54.80
2018-11-28T00:51:37.658Z,54.33
2018-11-28T00:54:05.822Z,54.23
2018-11-28T00:56:33.917Z,52.90
2018-11-28T00:59:02.044Z,54.03
2018-11-28T01:01:30.161Z,58.63
2018-11-28T01:03:58.262Z,51.97
2018-11-28T01:06:26.418Z,53.03
2018-11-28T01:08:54.789Z,55.80
2018-11-28T01:11:22.962Z,55.07
2018-11-28T01:13:51.066Z,54.33
2018-11-28T01:16:19.265Z,54.30
2018-11-28T01:18:47.370Z,54.40
2018-11-28T01:21:15.506Z,51.13
2018-11-28T01:23:43.719Z,51.37
2018-11-28T01:26:11.819Z,53.10
2018-11-28T01:28:39.932Z,52.53
2018-11-28T01:31:08.078Z,55.20
2018-11-28T01:33:36.213Z,55.67
2018-11-28T01:36:04.522Z,57.07
2018-11-28T01:38:32.697Z,53.60
2018-11-28T01:41:00.873Z,52.17
2018-11-28T01:43:29.035Z,52.37
2018-11-28T01:45:57.185Z,48.43
2018-11-28T01:48:25.301Z,51.73
2018-11-28T01:50:53.445Z,49.10
2018-11-28T01:53:21.597Z,54.47
2018-11-28T01:55:49.736Z,52.90
2018-11-28T01:58:17.864Z,47.60
2018-11-28T02:00:46.002Z,52.07
2018-11-28T02:03:14.133Z,55.60
2018-11-28T02:05:42.251Z,51.20
2018-11-28T02:08:10.451Z,51.57
2018-11-28T02:10:38.865Z,48.47
2018-11-28T02:13:07.014Z,54.63
2018-11-28T02:15:35.125Z,51.73
2018-11-28T02:18:03.271Z,53.57
2018-11-28T02:20:31.401Z,50.87
2018-11-28T02:22:59.548Z,52.90
2018-11-28T02:25:27.657Z,54.03
2018-11-28T02:27:55.763Z,53.90
2018-11-28T02:30:23.930Z,53.20
2018-11-28T02:32:52.038Z,56.33
2018-11-28T02:35:20.141Z,52.93
2018-11-28T02:37:48.631Z,60.47
2018-11-28T02:40:17.219Z,56.90
2018-11-28T02:42:45.681Z,68.53
2018-11-28T02:45:14.293Z,60.70
2018-11-28T02:47:42.427Z,56.47
2018-11-28T02:50:10.539Z,58.33
2018-11-28T02:52:38.665Z,61.23
2018-11-28T02:55:08.454Z,58.57
2018-11-28T02:57:36.582Z,59.47
2018-11-28T03:00:07.021Z,66.67
2018-11-28T03:02:35.191Z,61.50
2018-11-28T03:05:03.395Z,62.33
2018-11-28T03:07:31.491Z,58.57
2018-11-28T03:09:59.587Z,61.30
2018-11-28T03:12:27.762Z,64.03
2018-11-28T03:14:55.883Z,62.63
2018-11-28T03:17:25.047Z,62.80
2018-11-28T03:19:53.300Z,61.03
2018-11-28T03:22:21.397Z,59.40
2018-11-28T03:24:49.502Z,64.70
2018-11-28T03:27:17.643Z,59.63
2018-11-28T03:29:45.808Z,60.77
2018-11-28T03:32:13.871Z,63.90
2018-11-28T03:34:45.472Z,64.27
2018-11-28T03:37:11.418Z,65.93
2018-11-28T03:39:40.050Z,62.67
2018-11-28T03:42:08.132Z,70.43
2018-11-28T03:44:36.248Z,75.10
2018-11-28T03:47:04.377Z,69.87
2018-11-28T03:49:32.466Z,74.70
2018-11-28T03:52:00.593Z,77.40
2018-11-28T03:54:28.688Z,76.73
2018-11-28T03:56:56.803Z,84.27
2018-11-28T03:59:24.957Z,80.03
2018-11-28T04:01:53.050Z,78.40
2018-11-28T04:04:21.146Z,92.90
2018-11-28T04:06:49.263Z,85.97
2018-11-28T04:09:17.369Z,86.30
2018-11-28T04:11:45.486Z,90.83
2018-11-28T04:14:13.690Z,91.87
2018-11-28T04:16:41.840Z,90.73
2018-11-28T04:19:09.954Z,89.37
2018-11-28T04:21:38.106Z,98.23
2018-11-28T04:24:06.205Z,90.57
2018-11-28T04:26:34.338Z,97.63
2018-11-28T04:29:02.494Z,108.17
2018-11-28T04:31:30.599Z,97.50
2018-11-28T04:33:58.688Z,96.03
2018-11-28T04:36:26.835Z,96.33
2018-11-28T04:38:54.938Z,112.33
2018-11-28T04:41:23.067Z,98.17
2018-11-28T04:43:51.191Z,95.03
2018-11-28T04:46:19.316Z,92.17
2018-11-28T04:48:47.421Z,91.47
2018-11-28T04:51:15.532Z,97.33
2018-11-28T04:53:43.627Z,98.00
2018-11-28T04:56:11.722Z,88.60
2018-11-28T04:58:39.840Z,91.60
2018-11-28T05:01:07.947Z,104.40
2018-11-28T05:03:37.013Z,93.23
2018-11-28T05:06:04.177Z,103.77
2018-11-28T05:08:32.282Z,98.73
2018-11-28T05:11:00.397Z,95.87
2018-11-28T05:13:28.594Z,99.40
2018-11-28T05:15:56.747Z,91.10
2018-11-28T05:18:24.853Z,100.80
2018-11-28T05:20:52.949Z,98.53
2018-11-28T05:23:21.037Z,97.37
2018-11-28T05:25:49.145Z,94.67
2018-11-28T05:28:17.281Z,98.60
2018-11-28T05:30:45.416Z,96.33
2018-11-28T05:33:13.511Z,94.23
2018-11-28T05:35:41.625Z,96.23
2018-11-28T05:38:10.557Z,104.00
2018-11-28T05:40:38.665Z,99.87
2018-11-28T05:43:06.847Z,95.53
2018-11-28T05:45:34.984Z,89.83
2018-11-28T05:48:03.086Z,89.97
2018-11-28T05:50:31.219Z,102.97
2018-11-28T05:52:59.297Z,96.73
2018-11-28T05:55:27.399Z,111.03
2018-11-28T05:57:55.495Z,102.27
2018-11-28T06:00:24.428Z,102.77
2018-11-28T06:02:52.583Z,100.30
2018-11-28T06:05:20.681Z,100.30
2018-11-28T06:07:48.778Z,88.80
2018-11-28T06:10:16.914Z,86.33
2018-11-28T06:12:45.015Z,100.27
2018-11-28T06:15:13.165Z,93.47
2018-11-28T06:17:41.301Z,84.80
2018-11-28T06:20:11.967Z,85.17
2018-11-28T06:22:40.061Z,79.20
2018-11-28T06:25:15.638Z,93.70
2018-11-28T06:27:37.114Z,85.20
2018-11-28T06:30:06.711Z,75.37
2018-11-28T06:32:34.818Z,73.23
2018-11-28T06:35:02.965Z,74.50
2018-11-28T06:37:31.149Z,66.87
2018-11-28T06:39:59.294Z,74.63
2018-11-28T06:42:27.400Z,79.33
2018-11-28T06:44:55.501Z,75.13
2018-11-28T06:47:23.645Z,74.83
2018-11-28T06:49:51.739Z,74.37
2018-11-28T06:52:19.897Z,82.03
2018-11-28T06:54:48.049Z,71.60
2018-11-28T06:57:16.166Z,72.73
2018-11-28T06:59:44.281Z,71.83
2018-11-28T07:02:12.430Z,69.97
2018-11-28T07:04:40.541Z,79.97
2018-11-28T07:07:08.625Z,76.40
2018-11-28T07:09:36.798Z,79.10
2018-11-28T07:12:04.924Z,80.80
2018-11-28T07:14:33.046Z,78.63
2018-11-28T07:17:01.210Z,69.37
2018-11-28T07:19:29.390Z,67.87
2018-11-28T07:21:57.545Z,70.93
2018-11-28T07:24:25.669Z,63.57
2018-11-28T07:26:53.804Z,66.23
2018-11-28T07:29:21.896Z,72.37
2018-11-28T07:31:50.055Z,59.10
2018-11-28T07:34:18.137Z,69.03
2018-11-28T07:36:46.294Z,64.30
2018-11-28T07:39:14.419Z,67.63
2018-11-28T07:41:42.521Z,64.30
2018-11-28T07:44:10.624Z,66.80
2018-11-28T07:46:38.732Z,72.10
2018-11-28T07:49:06.841Z,68.90
2018-11-28T07:51:34.928Z,68.23
2018-11-28T07:54:03.045Z,69.73
2018-11-28T07:56:31.152Z,68.40
2018-11-28T07:58:59.249Z,61.03
2018-11-28T08:01:27.346Z,63.67
2018-11-28T08:03:55.457Z,61.27
2018-11-28T08:06:23.572Z,63.70
2018-11-28T08:08:55.977Z,62.07
2018-11-28T08:11:24.074Z,59.83
2018-11-28T08:13:52.163Z,63.67
2018-11-28T08:16:20.271Z,59.13
2018-11-28T08:18:48.423Z,52.97
2018-11-28T08:21:16.550Z,56.67
2018-11-28T08:23:44.677Z,51.47
2018-11-28T08:26:12.835Z,46.37
2018-11-28T08:28:40.940Z,54.73
2018-11-28T08:31:09.987Z,51.93
2018-11-28T08:33:37.245Z,52.17
2018-11-28T08:36:05.724Z,46.40
2018-11-28T08:38:33.874Z,46.57
2018-11-28T08:41:01.977Z,47.03
2018-11-28T08:43:30.065Z,42.00
2018-11-28T08:45:58.229Z,42.00
2018-11-28T08:48:26.338Z,44.67
2018-11-28T08:50:54.466Z,47.03
2018-11-28T08:53:22.584Z,40.67
2018-11-28T08:55:50.909Z,44.00
2018-11-28T08:58:19.029Z,43.37
2018-11-28T09:00:47.125Z,46.47
2018-11-28T09:03:15.248Z,43.73
2018-11-28T09:05:43.341Z,43.83
2018-11-28T09:08:11.441Z,44.03
2018-11-28T09:10:39.549Z,40.63
2018-11-28T09:13:07.692Z,42.47
2018-11-28T09:15:35.790Z,42.03
2018-11-28T09:18:03.907Z,44.13
2018-11-28T09:20:32.079Z,42.67
2018-11-28T09:23:00.203Z,42.20
2018-11-28T09:25:28.310Z,42.93
2018-11-28T09:27:57.016Z,45.27
2018-11-28T09:30:25.124Z,42.47
2018-11-28T09:32:53.282Z,45.03
2018-11-28T09:35:21.409Z,42.13
2018-11-28T09:37:49.522Z,44.33
2018-11-28T09:40:23.990Z,38.13
2018-11-28T09:42:52.698Z,40.73
2018-11-28T09:45:21.061Z,42.93
2018-11-28T09:47:49.177Z,39.93
2018-11-28T09:50:17.714Z,42.80
2018-11-28T09:52:45.819Z,38.50
2018-11-28T09:55:15.295Z,39.70
2018-11-28T09:57:43.434Z,38.40
2018-11-28T10:00:14.926Z,39.57
2018-11-28T10:02:43.038Z,34.93
2018-11-28T10:05:12.104Z,37.33
2018-11-28T10:07:40.291Z,39.13
2018-11-28T10:10:09.305Z,39.27
2018-11-28T10:12:37.417Z,38.87
2018-11-28T10:15:12.260Z,37.47
2018-11-28T10:17:40.521Z,39.03
2018-11-28T10:20:09.222Z,39.37
2018-11-28T10:22:37.424Z,33.10
2018-11-28T10:25:05.990Z,32.07
2018-11-28T10:27:34.086Z,37.37
2018-11-28T10:30:02.207Z,36.67
2018-11-28T10:32:30.321Z,34.13
2018-11-28T10:34:58.457Z,31.33
2018-11-28T10:37:26.556Z,33.60
2018-11-28T10:39:54.718Z,34.67
2018-11-28T10:42:22.817Z,32.00
2018-11-28T10:44:50.937Z,33.93
2018-11-28T10:47:19.037Z,37.20
2018-11-28T10:49:47.133Z,32.43
2018-11-28T10:52:15.267Z,32.87
2018-11-28T10:54:43.380Z,29.93
2018-11-28T10:57:11.513Z,31.83
2018-11-28T10:59:39.654Z,29.20
2018-11-28T11:02:13.405Z,27.60
2018-11-28T11:04:47.025Z,25.80
2018-11-28T11:07:20.503Z,28.57
2018-11-28T11:09:53.985Z,26.10
2018-11-28T11:12:27.441Z,27.17
2018-11-28T11:14:55.613Z,26.40
2018-11-28T11:17:23.738Z,27.20
2018-11-28T11:19:51.821Z,25.70
2018-11-28T11:22:19.922Z,26.93
2018-11-28T11:24:48.053Z,23.30
2018-11-28T11:27:16.173Z,25.73
2018-11-28T11:29:44.310Z,23.13
2018-11-28T11:32:12.486Z,23.03
2018-11-28T11:34:40.675Z,23.80
2018-11-28T11:37:08.786Z,22.47
2018-11-28T11:39:36.895Z,22.10
2018-11-28T11:42:05.255Z,18.97
2018-11-28T11:44:33.370Z,19.13
2018-11-28T11:47:01.494Z,19.53
2018-11-28T11:49:29.595Z,19.93
2018-11-28T11:51:57.712Z,20.50
2018-11-28T11:54:25.838Z,20.00
2018-11-28T11:56:54.033Z,19.10
2018-11-28T11:59:22.182Z,16.63
2018-11-28T12:01:54.685Z,17.80
2018-11-28T12:04:18.469Z,16.17
2018-11-28T12:06:46.617Z,19.03
2018-11-28T12:09:14.719Z,18.77
2018-11-28T12:11:42.801Z,17.97
2018-11-28T12:14:10.926Z,17.30
2018-11-28T12:16:39.196Z,15.93
2018-11-28T12:19:07.371Z,18.13
2018-11-28T12:21:35.463Z,19.87
2018-11-28T12:24:03.637Z,19.70
2018-11-28T12:26:31.794Z,16.73
2018-11-28T12:28:59.910Z,16.50
2018-11-28T12:31:28.051Z,16.73
2018-11-28T12:33:56.278Z,15.83
2018-11-28T12:36:24.398Z,16.67
2018-11-28T12:38:52.582Z,19.20
2018-11-28T12:41:20.785Z,17.63
2018-11-28T12:43:48.981Z,19.93
2018-11-28T12:46:17.178Z,18.37
2018-11-28T12:48:45.275Z,20.53
2018-11-28T12:51:13.398Z,19.73
2018-11-28T12:53:41.501Z,20.47
2018-11-28T12:56:09.690Z,21.03
2018-11-28T12:58:37.827Z,21.40
2018-11-28T13:01:05.951Z,21.70
2018-11-28T13:03:34.113Z,22.80
2018-11-28T13:06:02.292Z,22.23
2018-11-28T13:08:30.456Z,21.27
2018-11-28T13:10:58.559Z,20.90
2018-11-28T13:13:26.705Z,25.30
2018-11-28T13:15:54.911Z,20.67
2018-11-28T13:18:23.046Z,21.47
2018-11-28T13:20:51.161Z,23.33
2018-11-28T13:23:19.285Z,26.17
2018-11-28T13:25:47.660Z,22.90
2018-11-28T13:28:15.881Z,22.87
2018-11-28T13:30:44.007Z,23.03
2018-11-28T13:33:12.187Z,23.83
2018-11-28T13:35:40.302Z,23.73
2018-11-28T13:38:11.944Z,19.90
2018-11-28T13:40:40.220Z,22.30
2018-11-28T13:43:08.328Z,25.97
2018-11-28T13:45:40.382Z,21.60
2018-11-28T13:48:08.497Z,23.43
2018-11-28T13:50:36.823Z,22.10
2018-11-28T13:53:08.988Z,22.30
2018-11-28T13:55:39.802Z,21.37
2018-11-28T13:58:06.250Z,22.30
2018-11-28T14:00:34.400Z,22.93
2018-11-28T14:03:02.505Z,22.47
2018-11-28T14:05:30.608Z,23.77
2018-11-28T14:07:58.727Z,21.17
2018-11-28T14:10:27.033Z,21.67
2018-11-28T14:12:55.134Z,20.77
2018-11-28T14:15:23.473Z,19.73
2018-11-28T14:17:55.234Z,20.27
2018-11-28T14:20:23.418Z,21.33
2018-11-28T14:22:51.557Z,19.47
2018-11-28T14:25:19.681Z,23.37
2018-11-28T14:27:47.827Z,22.97
2018-11-28T14:30:18.195Z,20.50
2018-11-28T14:32:46.589Z,21.93
2018-11-28T14:35:14.868Z,21.50
2018-11-28T14:37:43.249Z,22.00
2018-11-28T14:40:12.923Z,20.87
2018-11-28T14:42:41.082Z,25.13
2018-11-28T14:45:10.175Z,25.80
2018-11-28T14:47:38.303Z,23.43
2018-11-28T14:50:09.038Z,25.67
2018-11-28T14:52:37.149Z,21.83
2018-11-28T14:55:07.429Z,24.37
2018-11-28T14:57:35.622Z,23.07
2018-11-28T15:00:04.389Z,23.43
2018-11-28T15:02:32.489Z,23.40
2018-11-28T15:05:00.637Z,24.17
2018-11-28T15:07:28.733Z,25.40
2018-11-28T15:09:59.451Z,25.23
2018-11-28T15:12:28.465Z,24.47
2018-11-28T15:14:56.553Z,26.33
2018-11-28T15:17:24.674Z,27.60
2018-11-28T15:19:52.777Z,26.60
2018-11-28T15:22:20.893Z,26.33
2018-11-28T15:24:48.999Z,29.07
2018-11-28T15:27:17.169Z,32.17
2018-11-28T15:29:45.320Z,29.63
2018-11-28T15:32:13.494Z,33.07
2018-11-28T15:34:41.679Z,32.30
2018-11-28T15:37:09.781Z,33.67
2018-11-28T15:39:37.899Z,31.70
2018-11-28T15:42:06.154Z,32.07
2018-11-28T15:44:34.289Z,31.20
2018-11-28T15:47:02.785Z,33.87
2018-11-28T15:49:30.895Z,35.13
2018-11-28T15:51:59.006Z,34.53
2018-11-28T15:54:27.203Z,35.97
2018-11-28T15:56:55.369Z,35.53
2018-11-28T15:59:23.532Z,42.90
2018-11-28T16:01:51.653Z,39.23
2018-11-28T16:04:19.865Z,38.93
2018-11-28T16:06:48.033Z,40.67
2018-11-28T16:09:21.662Z,41.83
2018-11-28T16:11:49.839Z,40.97
2018-11-28T16:14:17.984Z,42.37
2018-11-28T16:16:46.160Z,47.57
2018-11-28T16:19:14.277Z,47.13
2018-11-28T16:21:42.427Z,44.57
2018-11-28T16:24:10.588Z,48.33
2018-11-28T16:26:38.709Z,49.80
2018-11-28T16:29:06.821Z,48.10
2018-11-28T16:31:34.921Z,47.10
2018-11-28T16:34:03.086Z,53.90
2018-11-28T16:36:31.242Z,47.37
2018-11-28T16:38:59.372Z,51.23
2018-11-28T16:41:27.481Z,55.97
2018-11-28T16:43:55.581Z,52.27
2018-11-28T16:46:23.673Z,51.03
2018-11-28T16:48:51.826Z,57.03
2018-11-28T16:51:19.951Z,54.03
2018-11-28T16:53:48.052Z,54.10
2018-11-28T16:56:16.161Z,60.57
2018-11-28T16:58:44.289Z,52.77
2018-11-28T17:01:12.401Z,59.30
2018-11-28T17:03:40.505Z,56.50
2018-11-28T17:06:08.605Z,58.67
2018-11-28T17:08:36.709Z,57.50
2018-11-28T17:11:05.060Z,59.77
2018-11-28T17:13:33.163Z,54.93
2018-11-28T17:16:01.328Z,56.70
2018-11-28T17:18:29.472Z,55.13
2018-11-28T17:20:57.570Z,65.03
2018-11-28T17:23:25.692Z,57.27
2018-11-28T17:25:53.811Z,60.37
2018-11-28T17:28:21.974Z,59.23
2018-11-28T17:30:50.142Z,55.43
2018-11-28T17:33:18.362Z,60.30
2018-11-28T17:35:46.525Z,59.67
2018-11-28T17:38:14.655Z,56.37
2018-11-28T17:40:42.765Z,62.53
2018-11-28T17:43:10.861Z,61.57
2018-11-28T17:45:38.993Z,60.07
2018-11-28T17:48:07.161Z,64.80
2018-11-28T17:50:35.265Z,55.73
2018-11-28T17:53:11.661Z,57.53
2018-11-28T17:55:43.386Z,57.57
2018-11-28T17:58:10.710Z,56.07
2018-11-28T18:00:38.857Z,64.63
2018-11-28T18:03:06.978Z,59.33
2018-11-28T18:05:35.124Z,65.93
2018-11-28T18:08:03.226Z,63.33
2018-11-28T18:10:31.368Z,59.33
2018-11-28T18:13:16.066Z,60.60
2018-11-28T18:15:46.923Z,62.43
2018-11-28T18:18:16.076Z,59.17
2018-11-28T18:20:49.914Z,65.70
2018-11-28T18:23:12.516Z,65.37
2018-11-28T18:25:40.921Z,63.03
2018-11-28T18:28:09.096Z,62.90
2018-11-28T18:30:37.580Z,62.17
2018-11-28T18:33:06.156Z,63.00
2018-11-28T18:35:34.307Z,58.60
2018-11-28T18:38:02.546Z,62.47
2018-11-28T18:40:30.697Z,64.93
2018-11-28T18:42:58.861Z,63.67
2018-11-28T18:45:27.677Z,65.77
2018-11-28T18:47:55.810Z,63.23
2018-11-28T18:50:24.060Z,62.40
2018-11-28T18:52:52.185Z,68.20
2018-11-28T18:55:20.715Z,65.13
2018-11-28T18:57:51.368Z,67.73
2018-11-28T19:00:20.152Z,62.07
2018-11-28T19:02:48.360Z,65.37
2018-11-28T19:05:16.478Z,65.30
2018-11-28T19:07:44.598Z,65.03
2018-11-28T19:10:13.292Z,70.33
2018-11-28T19:12:42.362Z,70.40
2018-11-28T19:15:11.225Z,74.97
2018-11-28T19:17:39.340Z,68.63
2018-11-28T19:20:09.467Z,72.90
2018-11-28T19:29:24.259Z,77.23
2018-11-28T19:31:52.373Z,71.93
2018-11-28T19:34:20.565Z,76.10
2018-11-28T19:36:48.745Z,74.13
2018-11-28T19:39:16.917Z,72.53
2018-11-28T19:41:45.052Z,67.30
2018-11-28T19:44:13.246Z,76.83
2018-11-28T19:46:41.372Z,66.80
2018-11-28T19:49:09.534Z,68.73
2018-11-28T19:51:37.655Z,67.50
2018-11-28T19:54:05.786Z,70.57
2018-11-28T19:56:33.914Z,66.63
2018-11-28T19:59:02.064Z,66.90
2018-11-28T20:01:30.265Z,70.87
2018-11-28T20:03:58.390Z,66.17
2018-11-28T20:06:26.551Z,73.77
2018-11-28T20:08:54.751Z,67.63
2018-11-28T20:11:22.899Z,61.40
2018-11-28T20:13:51.101Z,67.00
2018-11-28T20:16:19.288Z,73.87
2018-11-28T20:18:47.441Z,67.27
2018-11-28T20:21:15.558Z,65.87
2018-11-28T20:23:43.809Z,73.60
2018-11-28T20:26:11.931Z,64.50
2018-11-28T20:28:40.071Z,64.03
2018-11-28T20:31:08.368Z,64.97
2018-11-28T20:33:36.489Z,73.83
2018-11-28T20:36:04.750Z,60.67
2018-11-28T20:38:33.544Z,75.53
2018-11-28T20:41:01.959Z,60.70
2018-11-28T20:43:30.128Z,62.97
2018-11-28T20:45:58.275Z,56.90
2018-11-28T20:48:26.446Z,58.40
2018-11-28T20:50:54.644Z,58.47
2018-11-28T20:53:23.546Z,64.30
2018-11-28T20:55:51.720Z,62.90
2018-11-28T20:58:19.942Z,54.63
2018-11-28T21:00:48.337Z,54.40
2018-11-28T21:03:16.521Z,53.20
2018-11-28T21:05:44.715Z,47.63
2018-11-28T21:08:13.065Z,51.50
2018-11-28T21:10:41.456Z,44.13
2018-11-28T21:13:11.189Z,45.10
2018-11-28T21:15:39.633Z,47.20
2018-11-28T21:18:08.228Z,43.27
2018-11-28T21:20:36.610Z,43.10
2018-11-28T21:23:05.810Z,43.87
2018-11-28T21:25:33.990Z,43.67
2018-11-28T21:28:02.138Z,49.57
2018-11-28T21:30:30.344Z,35.83
2018-11-28T21:32:58.479Z,38.73
2018-11-28T21:35:27.295Z,40.27
2018-11-28T21:37:55.409Z,39.07
2018-11-28T21:40:23.533Z,39.23
2018-11-28T21:42:51.806Z,36.50
2018-11-28T21:45:20.397Z,37.87
2018-11-28T21:47:48.569Z,37.53
2018-11-28T21:50:17.179Z,27.67
2018-11-28T21:52:45.365Z,34.33
2018-11-28T21:55:13.915Z,32.70
2018-11-28T21:57:42.023Z,32.13
2018-11-28T22:00:18.431Z,29.10
2018-11-28T22:02:46.600Z,31.47
2018-11-28T22:05:15.226Z,27.87
2018-11-28T22:07:43.387Z,28.03
2018-11-28T22:10:12.037Z,33.40
2018-11-28T22:12:40.160Z,27.37
2018-11-28T22:15:09.009Z,28.87
2018-11-28T22:17:37.393Z,23.20
2018-11-28T22:20:06.493Z,25.17
2018-11-28T22:22:34.620Z,34.13
2018-11-28T22:25:02.731Z,25.20
2018-11-28T22:27:30.940Z,26.07
2018-11-28T22:29:59.109Z,28.00
2018-11-28T22:32:27.250Z,28.70
2018-11-28T22:34:55.371Z,27.07
2018-11-28T22:37:23.518Z,25.70
2018-11-28T22:39:51.674Z,30.07
2018-11-28T22:42:19.846Z,29.20
2018-11-28T22:44:48.058Z,30.43
2018-11-28T22:47:16.187Z,31.97
2018-11-28T22:49:44.370Z,34.83
2018-11-28T22:52:12.486Z,31.57
2018-11-28T22:54:40.606Z,27.90
2018-11-28T22:57:08.799Z,31.40
2018-11-28T22:59:37.006Z,30.13
2018-11-28T23:02:35.861Z,32.23
2018-11-28T23:05:04.038Z,27.23
2018-11-28T23:07:32.169Z,29.17
2018-11-28T23:10:00.287Z,30.03
2018-11-28T23:12:28.410Z,32.67
2018-11-28T23:14:56.585Z,28.17
2018-11-28T23:17:24.704Z,33.03
2018-11-28T23:19:52.830Z,30.17
2018-11-28T23:22:20.993Z,27.37
2018-11-28T23:24:49.114Z,30.57
2018-11-28T23:27:17.242Z,27.80
2018-11-28T23:29:45.370Z,28.73
2018-11-28T23:32:13.482Z,29.77
2018-11-28T23:34:41.620Z,22.53
2018-11-28T23:37:09.785Z,30.73
2018-11-28T23:39:37.922Z,40.90
2018-11-28T23:42:06.119Z,24.90
2018-11-28T23:44:34.236Z,26.20
2018-11-28T23:47:02.500Z,25.47
2018-11-28T23:49:30.693Z,25.93
2018-11-28T23:51:58.827Z,29.57
2018-11-28T23:54:26.982Z,26.07
2018-11-28T23:56:55.163Z,24.50
2018-11-28T23:59:23.293Z,26.67
